• Join FlightAware (Why Join?)
  • Login
  • US Flag 
11:12PM EDT


 

Airport Tracker/Info


-or-


 

Live Flight TrackerFlight Track Log ✈ ASQ6151 ✈ 04-May-2013 ✈ KALB - KIAD

Flight Track Log - Related Links

Times and Time Zones

All times are in EDT time to prevent confusion due to time zone crossing. See the ASQ6151 flight status page for this flight to view local times or setup timezone preferences in your user account.

Time Position Orientation Groundspeed Altitude Reporting Facility
EDT Latitude Longitude Course Direction KTS MPH feet Rate Location/Type
06:28AM 42.7297 -73.8081 200° South 151 174 1,200  Level Boston Center
06:29AM 42.7064 -73.8556 236° Southwest 204 235 3,800 2,160 Climbing Boston Center
06:30AM 42.7408 -73.9242 304° West 239 275 5,700 2,280 Climbing Boston Center
06:31AM 42.4753 -73.9197 195° South  Level FlightAware Approximate
06:31AM 42.7833 -74.0131 303° West 261 300 8,300  Level Boston Center
06:32AM 42.3838 -73.9540 195° South  Level FlightAware Approximate
06:32AM 42.8219 -74.0875 305° West 273 314 10,400  Level Boston Center
06:33AM 42.2928 -73.9912 198° South  Level FlightAware Approximate
06:33AM 42.8264 -74.2067 273° West 279 321 12,100  Level Boston Center
06:34AM 42.2027 -74.0320 200° South  Level FlightAware Approximate
06:34AM 42.7769 -74.3069 236° Southwest 292 336 13,500  Level Boston Center
06:35AM 42.7103 -74.4294 234° Southwest 350 403 15,100 1,500 Climbing Boston Center
06:36AM 42.6203 -74.4489 189° South 343 395 16,600 1,320 Climbing Boston Center
06:37AM 42.5319 -74.3644 145° Southeast 315 362 17,800 1,320 Climbing Boston Center
06:38AM 42.4522 -74.2747 140° Southeast 345 397 19,300 1,500 Climbing Boston Center
06:39AM 42.3725 -74.1853 140° Southeast 359 413 20,800 1,500 Climbing Boston Center
06:40AM 42.2883 -74.0958 142° Southeast 377 434 22,300 1,500 Climbing Boston Center
06:41AM 42.1892 -74.0372 156° South 382 440 23,900 1,500 Climbing Boston Center
06:42AM 42.0744 -74.0456 183° South 382 440 25,300 1,500 Climbing Boston Center
06:43AM 41.9575 -74.0508 182° South 401 461 26,900 1,440 Climbing Boston Center
06:45AM 41.7261 -74.1314 195° South 429 494 29,900 960 Climbing New York Center
06:46AM 41.6139 -74.1922 202° Southwest 424 488 30,000  Climbing New York Center
06:47AM 41.5017 -74.2583 204° Southwest 433 498 30,000  Level New York Center
06:48AM 41.3808 -74.3267 203° Southwest 455 524 30,000 -120 Level New York Center
06:49AM 41.2667 -74.3869 202° Southwest 477 549 29,800 -720 Descending New York Center
06:50AM 41.1458 -74.4522 202° Southwest 482 555 28,600 -960 Descending New York Center
06:51AM 41.0314 -74.5203 204° Southwest 476 548 27,900 -300 Descending New York Center
06:52AM 40.9206 -74.5936 207° Southwest 455 524 28,000  Climbing New York Center
06:53AM 40.8472 -74.7294 235° Southwest 432 497 28,000  Level New York Center
06:54AM 40.7819 -74.8736 239° Southwest 450 518 28,000  Level New York Center
06:55AM 40.7164 -75.0203 240° Southwest 460 529 28,000 -480 Level New York Center
06:56AM 40.6506 -75.1667 239° Southwest 470 541 27,100 -1,080 Descending New York Center
06:57AM 40.5828 -75.3100 238° Southwest 470 541 25,900 -1,260 Descending New York Center
06:58AM 40.5144 -75.4583 239° Southwest 475 547 24,600 -1,260 Descending New York Center
06:59AM 40.4483 -75.5983 238° Southwest 475 547 23,400 -1,380 Descending New York Center
07:00AM 40.3864 -75.7356 239° Southwest 459 528 21,800 -1,620 Descending New York Center
07:01AM 40.3222 -75.8700 238° Southwest 447 514 20,300 -960 Descending New York Center
07:02AM 40.2492 -76.0169 237° Southwest 447 514 20,000 -300 Descending New York Center
07:03AM 40.1867 -76.1508 239° Southwest 437 503 19,700 -780 Descending New York Center
07:04AM 40.1267 -76.2792 239° Southwest 430 495 18,500 -960 Descending New York Center
07:05AM 40.0733 -76.3942 239° Southwest 419 482 17,800 -1,080 Descending New York Center
07:06AM 40.0103 -76.5303 239° Southwest 411 473 16,400 -1,380 Descending New York Center
07:07AM 39.9589 -76.6425 239° Southwest 406 467 15,200 -720 Descending New York Center
07:08AM 39.8961 -76.7725 238° Southwest 406 467 15,000 -120 Descending New York Center
07:09AM 39.8447 -76.8817 239° Southwest 401 461 15,000 -1,140 Level New York Center
07:11AM 39.7833 -76.9928 270° West  Level FlightAware Approximate
07:12AM 39.7333 -77.1167 270° West 312 359 11,400  Level Potomac TRACON
07:14AM 39.6500 -77.3167 242° Southwest 308 354 8,500 -1,080 Descending Potomac TRACON
07:16AM 39.5333 -77.4500 221° Southwest 276 318 7,100 -720 Descending Potomac TRACON
07:17AM 39.4500 -77.4500 180° South 262 302 6,400 -900 Descending Potomac TRACON
07:18AM 39.3833 -77.4500 180° South 229 264 5,400 -480 Descending Potomac TRACON
07:20AM 39.2500 -77.4500 180° South 242 278 5,000 -240 Descending Potomac TRACON
07:21AM 39.1833 -77.4500 180° South 233 268 4,700 -780 Descending Potomac TRACON
07:22AM 39.1333 -77.4500 180° South 209 241 3,600 -1,080 Descending Potomac TRACON
07:23AM 39.0833 -77.4500 180° South 166 191 2,600 -960 Descending Potomac TRACON
07:24AM 39.0333 -77.4667 195° South 172 198 1,700 -900 Descending Potomac TRACON
07:25AM 39.0000 -77.4667 180° South 138 159 900 -840 Descending Potomac TRACON